createdAt,value
2018-07-28T00:00:49.993Z,0
2018-07-28T00:02:04.941Z,0
2018-07-28T00:03:18.874Z,0
2018-07-28T00:04:32.961Z,0
2018-07-28T00:05:47.150Z,0
2018-07-28T00:07:01.620Z,0
2018-07-28T00:08:16.305Z,0
2018-07-28T00:09:30.366Z,0
2018-07-28T00:10:45.041Z,0
2018-07-28T00:11:59.011Z,0
2018-07-28T00:13:13.710Z,0
2018-07-28T00:14:28.647Z,0
2018-07-28T00:15:43.081Z,0
2018-07-28T00:16:57.367Z,0
2018-07-28T00:18:11.795Z,0
2018-07-28T00:19:26.485Z,0
2018-07-28T00:20:40.779Z,0
2018-07-28T00:21:54.698Z,0
2018-07-28T00:23:09.146Z,0
2018-07-28T00:24:23.325Z,0
2018-07-28T00:25:37.771Z,0
2018-07-28T00:26:52.466Z,0
2018-07-28T00:28:06.166Z,0
2018-07-28T00:29:20.882Z,0
2018-07-28T00:30:35.567Z,0
2018-07-28T00:31:49.018Z,0
2018-07-28T00:33:02.983Z,0
2018-07-28T00:34:17.518Z,0
2018-07-28T00:35:31.705Z,0
2018-07-28T00:36:46.663Z,0
2018-07-28T00:38:01.951Z,0
2018-07-28T00:39:15.942Z,0
2018-07-28T00:40:30.613Z,0
2018-07-28T00:41:45.138Z,0
2018-07-28T00:43:21.380Z,0
2018-07-28T00:44:35.515Z,0
2018-07-28T00:45:49.975Z,0
2018-07-28T00:47:04.708Z,0
2018-07-28T00:48:19.406Z,0
2018-07-28T00:49:34.358Z,0
2018-07-28T00:50:48.522Z,0
2018-07-28T00:52:03.383Z,0
2018-07-28T00:53:17.301Z,0
2018-07-28T00:54:32.003Z,0
2018-07-28T00:55:45.948Z,0
2018-07-28T00:57:00.388Z,0
2018-07-28T00:58:15.091Z,0
2018-07-28T00:59:29.261Z,0
2018-07-28T01:00:43.694Z,0
2018-07-28T01:01:58.153Z,0
2018-07-28T01:03:12.893Z,0
2018-07-28T01:04:27.563Z,0
2018-07-28T01:05:41.998Z,0
2018-07-28T01:06:55.923Z,0
2018-07-28T01:08:11.160Z,0
2018-07-28T01:09:25.403Z,0
2018-07-28T01:10:40.051Z,0
2018-07-28T01:11:55.316Z,0
2018-07-28T01:13:09.727Z,0
2018-07-28T01:14:24.160Z,0
2018-07-28T01:16:30.133Z,0
2018-07-28T01:17:44.300Z,0
2018-07-28T01:18:58.983Z,0
2018-07-28T01:20:13.667Z,0
2018-07-28T01:21:28.409Z,0
2018-07-28T01:22:43.194Z,0
2018-07-28T01:23:57.380Z,0
2018-07-28T01:25:12.084Z,0
2018-07-28T01:26:26.534Z,0
2018-07-28T01:27:40.975Z,0
2018-07-28T01:28:54.875Z,0
2018-07-28T01:30:09.541Z,0
2018-07-28T01:31:23.683Z,0
2018-07-28T01:32:38.228Z,0
2018-07-28T01:33:53.196Z,0
2018-07-28T01:35:07.905Z,0
2018-07-28T01:36:22.847Z,0
2018-07-28T01:37:37.196Z,0
2018-07-28T01:38:51.897Z,0
2018-07-28T01:40:06.645Z,0
2018-07-28T01:41:21.066Z,0
2018-07-28T01:42:34.735Z,0
2018-07-28T01:43:49.448Z,0
2018-07-28T01:45:04.057Z,0
2018-07-28T01:46:18.529Z,0
2018-07-28T01:47:32.967Z,0
2018-07-28T01:48:47.446Z,0
2018-07-28T01:50:02.328Z,0
2018-07-28T01:51:16.524Z,0
2018-07-28T01:52:31.743Z,0
2018-07-28T01:53:46.006Z,0
2018-07-28T01:55:00.646Z,0
2018-07-28T01:56:15.338Z,0
2018-07-28T01:57:30.030Z,0
2018-07-28T01:58:44.669Z,0
2018-07-28T01:59:59.057Z,0
2018-07-28T02:01:14.030Z,0
2018-07-28T02:02:28.694Z,0
2018-07-28T02:03:42.771Z,0
2018-07-28T02:04:57.508Z,0
2018-07-28T02:06:12.499Z,0
2018-07-28T02:07:27.180Z,0
2018-07-28T02:08:42.226Z,0
2018-07-28T02:09:56.419Z,0
2018-07-28T02:11:11.123Z,0
2018-07-28T02:12:25.516Z,0
2018-07-28T02:13:39.942Z,0
2018-07-28T02:14:54.096Z,0
2018-07-28T02:16:08.809Z,0
2018-07-28T02:17:23.794Z,0
2018-07-28T02:18:37.979Z,0
2018-07-28T02:19:52.673Z,0
2018-07-28T02:21:07.365Z,0
2018-07-28T02:22:22.252Z,0
2018-07-28T02:23:37.194Z,0
2018-07-28T02:24:51.746Z,0
2018-07-28T02:26:06.134Z,0
2018-07-28T02:27:20.574Z,0
2018-07-28T02:28:35.274Z,0
2018-07-28T02:29:50.264Z,0
2018-07-28T02:31:04.458Z,0
2018-07-28T02:32:18.922Z,0
2018-07-28T02:33:33.613Z,0
2018-07-28T02:34:48.554Z,0
2018-07-28T02:36:03.544Z,0
2018-07-28T02:37:17.734Z,0
2018-07-28T02:38:32.459Z,0
2018-07-28T02:39:46.894Z,0
2018-07-28T02:41:01.361Z,0
2018-07-28T02:42:16.355Z,0
2018-07-28T02:43:30.841Z,0
2018-07-28T02:44:45.455Z,0
2018-07-28T02:45:59.675Z,0
2018-07-28T02:47:13.885Z,0
2018-07-28T02:48:28.365Z,0
2018-07-28T02:49:42.539Z,0
2018-07-28T02:50:56.961Z,0
2018-07-28T02:52:12.008Z,0
2018-07-28T02:53:26.470Z,0
2018-07-28T02:54:40.657Z,0
2018-07-28T02:56:12.145Z,0
2018-07-28T02:57:25.588Z,0
2018-07-28T02:58:40.273Z,0
2018-07-28T02:59:54.957Z,0
2018-07-28T03:01:09.460Z,0
2018-07-28T03:02:24.148Z,0
2018-07-28T03:03:38.624Z,0
2018-07-28T03:04:53.063Z,0
2018-07-28T03:06:07.516Z,0
2018-07-28T03:07:21.957Z,0
2018-07-28T03:08:36.166Z,0
2018-07-28T03:09:50.634Z,0
2018-07-28T03:11:05.075Z,0
2018-07-28T03:12:19.506Z,0
2018-07-28T03:13:33.926Z,0
2018-07-28T03:14:48.144Z,0
2018-07-28T03:16:02.828Z,0
2018-07-28T03:17:17.297Z,0
2018-07-28T03:18:32.220Z,0
2018-07-28T03:19:47.136Z,0
2018-07-28T03:21:01.886Z,0
2018-07-28T03:22:16.338Z,0
2018-07-28T03:23:30.788Z,0
2018-07-28T03:24:45.229Z,0
2018-07-28T03:25:59.401Z,0
2018-07-28T03:27:13.887Z,0
2018-07-28T03:28:28.466Z,0
2018-07-28T03:29:42.904Z,0
2018-07-28T03:30:57.098Z,0
2018-07-28T03:32:11.916Z,0
2018-07-28T03:33:26.601Z,0
2018-07-28T03:34:41.267Z,0
2018-07-28T03:35:57.128Z,0
2018-07-28T03:37:11.568Z,0
2018-07-28T03:38:26.216Z,0
2018-07-28T03:39:40.671Z,0
2018-07-28T03:40:55.200Z,0
2018-07-28T03:42:09.639Z,0
2018-07-28T03:43:23.819Z,0
2018-07-28T03:44:38.261Z,5
2018-07-28T03:45:52.960Z,5
2018-07-28T03:47:07.336Z,5
2018-07-28T03:48:21.762Z,5
2018-07-28T03:49:36.270Z,5
2018-07-28T03:50:50.647Z,5
2018-07-28T03:52:05.331Z,5
2018-07-28T03:53:19.505Z,5
2018-07-28T03:54:33.921Z,10
2018-07-28T03:55:48.373Z,10
2018-07-28T03:57:02.821Z,10
2018-07-28T03:58:17.442Z,10
2018-07-28T03:59:31.615Z,10
2018-07-28T04:00:45.794Z,15
2018-07-28T04:02:00.420Z,15
2018-07-28T04:03:14.813Z,15
2018-07-28T04:04:29.606Z,15
2018-07-28T04:05:44.300Z,20
2018-07-28T04:07:00.141Z,20
2018-07-28T04:08:14.636Z,20
2018-07-28T04:09:29.215Z,25
2018-07-28T04:10:43.843Z,25
2018-07-28T04:11:58.300Z,30
2018-07-28T04:13:12.849Z,30
2018-07-28T04:14:28.468Z,30
2018-07-28T04:15:42.829Z,35
2018-07-28T04:16:57.211Z,40
2018-07-28T04:18:12.558Z,40
2018-07-28T04:19:27.139Z,45
2018-07-28T04:20:41.609Z,45
2018-07-28T04:21:56.498Z,50
2018-07-28T04:23:10.813Z,50
2018-07-28T04:24:25.175Z,55
2018-07-28T04:25:40.300Z,55
2018-07-28T04:26:55.017Z,60
2018-07-28T04:28:09.476Z,65
2018-07-28T04:29:24.103Z,65
2018-07-28T04:30:39.023Z,70
2018-07-28T04:31:53.902Z,75
2018-07-28T04:33:08.891Z,80
2018-07-28T04:34:23.722Z,85
2018-07-28T04:35:38.523Z,85
2018-07-28T04:36:53.539Z,95
2018-07-28T04:38:08.055Z,90
2018-07-28T04:39:22.945Z,90
2018-07-28T04:40:37.242Z,95
2018-07-28T04:41:51.512Z,105
2018-07-28T04:43:06.582Z,105
2018-07-28T04:44:21.269Z,115
2018-07-28T04:45:36.080Z,125
2018-07-28T04:46:50.566Z,130
2018-07-28T04:48:04.793Z,130
2018-07-28T04:49:19.219Z,140
2018-07-28T04:50:33.835Z,155
2018-07-28T04:51:48.517Z,170
2018-07-28T04:53:02.944Z,185
2018-07-28T04:54:17.694Z,200
2018-07-28T04:55:32.124Z,200
2018-07-28T04:56:46.313Z,200
2018-07-28T04:58:00.993Z,225
2018-07-28T04:59:15.505Z,235
2018-07-28T05:00:30.218Z,235
2018-07-28T05:01:44.637Z,250
2018-07-28T05:02:58.593Z,260
2018-07-28T05:04:13.140Z,255
2018-07-28T05:05:27.305Z,255
2018-07-28T05:06:42.028Z,255
2018-07-28T05:07:56.684Z,275
2018-07-28T05:09:11.521Z,275
2018-07-28T05:10:26.478Z,285
2018-07-28T05:11:40.430Z,290
2018-07-28T05:12:55.153Z,285
2018-07-28T05:14:09.429Z,290
2018-07-28T05:15:23.970Z,315
2018-07-28T05:16:38.821Z,345
2018-07-28T05:17:53.148Z,365
2018-07-28T05:19:07.535Z,375
2018-07-28T05:20:21.760Z,380
2018-07-28T05:21:35.960Z,380
2018-07-28T05:22:50.671Z,405
2018-07-28T05:24:05.080Z,405
2018-07-28T05:25:19.869Z,410
2018-07-28T05:26:34.309Z,405
2018-07-28T05:27:49.270Z,400
2018-07-28T05:29:03.741Z,410
2018-07-28T05:30:17.940Z,350
2018-07-28T05:31:32.972Z,205
2018-07-28T05:32:46.966Z,180
2018-07-28T05:34:02.001Z,175
2018-07-28T05:35:16.742Z,175
2018-07-28T05:36:31.162Z,175
2018-07-28T05:37:45.864Z,175
2018-07-28T05:39:01.489Z,175
2018-07-28T05:40:16.015Z,175
2018-07-28T05:41:31.187Z,175
2018-07-28T05:42:45.962Z,175
2018-07-28T05:44:00.792Z,175
2018-07-28T05:45:15.551Z,175
2018-07-28T05:46:30.517Z,175
2018-07-28T05:47:44.706Z,175
2018-07-28T05:48:58.997Z,175
2018-07-28T05:50:13.531Z,175
2018-07-28T05:51:28.103Z,175
2018-07-28T05:52:42.372Z,175
2018-07-28T05:53:56.557Z,180
2018-07-28T05:55:11.058Z,175
2018-07-28T05:56:25.075Z,175
2018-07-28T05:57:39.049Z,180
2018-07-28T05:58:53.257Z,180
2018-07-28T06:00:07.982Z,180
2018-07-28T06:01:22.637Z,185
2018-07-28T06:02:37.803Z,185
2018-07-28T06:03:52.273Z,185
2018-07-28T06:05:06.970Z,185
2018-07-28T06:06:22.289Z,185
2018-07-28T06:07:36.776Z,185
2018-07-28T06:08:51.745Z,185
2018-07-28T06:10:06.234Z,185
2018-07-28T06:11:21.305Z,190
2018-07-28T06:12:35.684Z,195
2018-07-28T06:14:17.972Z,190
2018-07-28T06:15:32.708Z,195
2018-07-28T06:16:47.047Z,205
2018-07-28T06:18:01.259Z,205
2018-07-28T06:19:15.013Z,205
2018-07-28T06:20:30.089Z,210
2018-07-28T06:21:44.635Z,215
2018-07-28T06:22:59.369Z,220
2018-07-28T06:24:13.564Z,225
2018-07-28T06:25:28.017Z,225
2018-07-28T06:26:42.489Z,225
2018-07-28T06:27:57.009Z,225
2018-07-28T06:29:11.013Z,225
2018-07-28T06:30:25.852Z,220
2018-07-28T06:31:40.938Z,215
2018-07-28T06:32:56.174Z,210
2018-07-28T06:34:10.637Z,200
2018-07-28T06:35:25.351Z,195
2018-07-28T06:36:40.111Z,185
2018-07-28T06:37:54.575Z,180
2018-07-28T06:39:08.774Z,180
2018-07-28T06:40:23.755Z,185
2018-07-28T06:41:38.315Z,190
2018-07-28T06:42:51.787Z,185
2018-07-28T06:44:06.856Z,185
2018-07-28T06:45:21.656Z,190
2018-07-28T06:47:06.817Z,195
2018-07-28T06:48:21.313Z,195
2018-07-28T06:49:35.529Z,200
2018-07-28T06:50:51.552Z,205
2018-07-28T06:52:07.975Z,225
2018-07-28T06:53:24.801Z,240
2018-07-28T06:54:41.489Z,260
2018-07-28T06:55:58.350Z,285
2018-07-28T06:57:15.257Z,295
2018-07-28T06:58:32.681Z,300
2018-07-28T06:59:49.729Z,300
2018-07-28T07:01:06.269Z,300
2018-07-28T07:02:23.435Z,300
2018-07-28T07:03:37.764Z,305
2018-07-28T07:04:52.947Z,305
2018-07-28T07:06:07.116Z,290
2018-07-28T07:07:21.822Z,275
2018-07-28T07:08:36.120Z,270
2018-07-28T07:09:50.885Z,265
2018-07-28T07:11:05.102Z,275
2018-07-28T07:12:19.767Z,260
2018-07-28T07:13:34.439Z,260
2018-07-28T07:14:49.124Z,245
2018-07-28T07:16:04.081Z,240
2018-07-28T07:17:19.427Z,235
2018-07-28T07:18:34.112Z,225
2018-07-28T07:19:48.724Z,225
2018-07-28T07:21:03.426Z,225
2018-07-28T07:22:17.407Z,230
2018-07-28T07:23:32.127Z,235
2018-07-28T07:24:46.415Z,245
2018-07-28T07:26:01.221Z,255
2018-07-28T07:27:16.072Z,260
2018-07-28T07:28:30.252Z,250
2018-07-28T07:29:44.981Z,240
2018-07-28T07:30:59.177Z,235
2018-07-28T07:32:13.715Z,235
2018-07-28T07:33:28.498Z,235
2018-07-28T07:34:42.960Z,235
2018-07-28T07:35:57.423Z,235
2018-07-28T07:37:11.659Z,240
2018-07-28T07:38:26.245Z,255
2018-07-28T07:39:40.438Z,260
2018-07-28T07:40:54.820Z,265
2018-07-28T07:42:10.026Z,265
2018-07-28T07:43:24.741Z,260
2018-07-28T07:44:39.189Z,255
2018-07-28T07:45:52.656Z,250
2018-07-28T07:47:07.428Z,250
2018-07-28T07:48:22.008Z,255
2018-07-28T07:49:36.537Z,265
2018-07-28T07:50:51.007Z,285
2018-07-28T07:52:05.724Z,300
2018-07-28T07:53:30.136Z,325
2018-07-28T07:54:44.826Z,325
2018-07-28T07:55:59.571Z,305
2018-07-28T07:57:14.603Z,290
2018-07-28T07:58:29.379Z,285
2018-07-28T07:59:43.825Z,285
2018-07-28T08:00:58.813Z,285
2018-07-28T08:02:13.489Z,285
2018-07-28T08:03:28.295Z,280
2018-07-28T08:04:43.398Z,275
2018-07-28T08:05:58.100Z,280
2018-07-28T08:07:12.844Z,290
2018-07-28T08:08:27.897Z,300
2018-07-28T08:09:42.160Z,315
2018-07-28T08:10:56.432Z,320
2018-07-28T08:12:10.896Z,325
2018-07-28T08:13:25.300Z,320
2018-07-28T08:14:39.349Z,305
2018-07-28T08:15:54.007Z,290
2018-07-28T08:17:08.974Z,280
2018-07-28T08:18:23.812Z,280
2018-07-28T08:19:38.602Z,290
2018-07-28T08:20:52.910Z,295
2018-07-28T08:22:07.187Z,290
2018-07-28T08:23:22.331Z,285
2018-07-28T08:24:36.568Z,285
2018-07-28T08:26:04.385Z,285
2018-07-28T08:27:18.860Z,290
2018-07-28T08:28:33.369Z,290
2018-07-28T08:29:47.842Z,285
2018-07-28T08:31:02.284Z,285
2018-07-28T08:32:17.368Z,285
2018-07-28T08:33:32.683Z,280
2018-07-28T08:34:47.151Z,265
2018-07-28T08:36:01.618Z,250
2018-07-28T08:37:16.369Z,235
2018-07-28T08:38:31.571Z,220
2018-07-28T08:39:46.057Z,200
2018-07-28T08:40:59.977Z,185
2018-07-28T08:42:14.689Z,165
2018-07-28T08:43:28.483Z,150
2018-07-28T08:44:42.974Z,140
2018-07-28T08:45:57.446Z,125
2018-07-28T08:47:11.648Z,110
2018-07-28T08:48:26.566Z,95
2018-07-28T08:49:40.822Z,90
2018-07-28T08:50:55.532Z,85
2018-07-28T08:52:09.487Z,80
2018-07-28T08:53:24.397Z,80
2018-07-28T08:54:38.915Z,75
2018-07-28T08:55:53.478Z,75
2018-07-28T08:57:08.483Z,70
2018-07-28T08:58:22.879Z,70
2018-07-28T08:59:37.468Z,70
2018-07-28T09:00:51.794Z,65
2018-07-28T09:02:06.560Z,65
2018-07-28T09:03:20.802Z,70
2018-07-28T09:04:35.893Z,75
2018-07-28T09:05:50.366Z,80
2018-07-28T09:07:05.138Z,85
2018-07-28T09:08:19.586Z,95
2018-07-28T09:09:34.200Z,120
2018-07-28T09:10:48.837Z,135
2018-07-28T09:12:02.853Z,145
2018-07-28T09:13:17.357Z,155
2018-07-28T09:14:31.915Z,155
2018-07-28T09:15:46.107Z,160
2018-07-28T09:17:00.549Z,170
2018-07-28T09:18:15.190Z,160
2018-07-28T09:19:29.729Z,135
2018-07-28T09:20:44.749Z,110
2018-07-28T09:21:59.895Z,95
2018-07-28T09:23:14.747Z,85
2018-07-28T09:24:29.466Z,80
2018-07-28T09:25:44.435Z,80
2018-07-28T09:26:58.905Z,75
2018-07-28T09:28:13.670Z,75
2018-07-28T09:29:28.650Z,75
2018-07-28T09:30:43.346Z,75
2018-07-28T09:32:38.128Z,75
2018-07-28T09:33:52.588Z,80
2018-07-28T09:35:07.205Z,80
2018-07-28T09:36:21.511Z,85
2018-07-28T09:37:35.742Z,90
2018-07-28T09:38:50.789Z,90
2018-07-28T09:40:04.958Z,95
2018-07-28T09:41:19.679Z,105
2018-07-28T09:42:34.438Z,115
2018-07-28T09:43:48.962Z,125
2018-07-28T09:45:03.268Z,140
2018-07-28T09:46:17.851Z,155
2018-07-28T09:47:35.127Z,175
2018-07-28T09:48:49.350Z,185
2018-07-28T09:50:04.109Z,210
2018-07-28T09:51:18.866Z,235
2018-07-28T09:53:05.440Z,270
2018-07-28T09:54:19.919Z,275
2018-07-28T09:55:35.009Z,275
2018-07-28T09:56:49.217Z,275
2018-07-28T09:58:04.240Z,275
2018-07-28T09:59:18.909Z,275
2018-07-28T10:00:33.551Z,275
2018-07-28T10:01:48.026Z,280
2018-07-28T10:03:02.979Z,285
2018-07-28T10:04:17.442Z,295
2018-07-28T10:05:31.621Z,295
2018-07-28T10:06:46.765Z,295
2018-07-28T10:08:01.508Z,300
2018-07-28T10:09:15.752Z,300
2018-07-28T10:10:30.684Z,295
2018-07-28T10:11:45.148Z,290
2018-07-28T10:12:59.420Z,285
2018-07-28T10:14:14.411Z,260
2018-07-28T10:15:29.032Z,245
2018-07-28T10:16:43.488Z,250
2018-07-28T10:17:57.964Z,245
2018-07-28T10:19:12.394Z,225
2018-07-28T10:20:27.218Z,225
2018-07-28T10:21:41.947Z,230
2018-07-28T10:22:56.912Z,245
2018-07-28T10:24:11.709Z,225
2018-07-28T10:25:26.159Z,200
2018-07-28T10:26:40.717Z,195
2018-07-28T10:27:55.143Z,215
2018-07-28T10:29:15.413Z,255
2018-07-28T10:30:29.925Z,280
2018-07-28T10:31:44.442Z,275
2018-07-28T10:32:59.214Z,250
2018-07-28T10:34:13.965Z,230
2018-07-28T10:35:28.383Z,225
2018-07-28T10:36:43.494Z,210
2018-07-28T10:37:58.160Z,190
2018-07-28T10:39:13.402Z,175
2018-07-28T10:40:28.140Z,165
2018-07-28T10:41:42.893Z,150
2018-07-28T10:42:57.101Z,155
2018-07-28T10:44:11.807Z,160
2018-07-28T10:45:26.291Z,170
2018-07-28T10:46:40.918Z,190
2018-07-28T10:47:56.066Z,205
2018-07-28T10:49:10.275Z,225
2018-07-28T10:50:24.781Z,235
2018-07-28T10:51:39.789Z,240
2018-07-28T10:52:54.310Z,245
2018-07-28T10:54:08.721Z,245
2018-07-28T10:55:23.254Z,245
2018-07-28T10:56:37.860Z,250
2018-07-28T10:57:52.135Z,255
2018-07-28T10:59:06.641Z,265
2018-07-28T11:00:21.197Z,270
2018-07-28T11:01:35.100Z,275
2018-07-28T11:03:03.177Z,280
2018-07-28T11:04:56.010Z,285
2018-07-28T11:06:10.898Z,285
2018-07-28T11:07:25.754Z,300
2018-07-28T11:08:39.743Z,310
2018-07-28T11:09:54.553Z,315
2018-07-28T11:11:41.833Z,320
2018-07-28T11:12:55.952Z,315
2018-07-28T11:14:10.191Z,310
2018-07-28T11:15:24.418Z,295
2018-07-28T11:16:38.970Z,280
2018-07-28T11:17:53.586Z,250
2018-07-28T11:19:09.285Z,235
2018-07-28T11:20:24.145Z,210
2018-07-28T11:21:38.896Z,190
2018-07-28T11:22:54.125Z,175
2018-07-28T11:24:09.223Z,170
2018-07-28T11:25:24.281Z,165
2018-07-28T11:26:39.196Z,165
2018-07-28T11:27:53.450Z,170
2018-07-28T11:29:07.913Z,190
2018-07-28T11:30:22.737Z,215
2018-07-28T11:31:37.383Z,235
2018-07-28T11:32:51.218Z,240
2018-07-28T11:34:07.205Z,240
2018-07-28T11:35:21.952Z,240
2018-07-28T11:36:37.203Z,245
2018-07-28T11:37:53.583Z,245
2018-07-28T11:39:09.012Z,245
2018-07-28T11:40:23.593Z,245
2018-07-28T11:41:38.713Z,250
2018-07-28T11:42:53.329Z,240
2018-07-28T11:44:08.002Z,230
2018-07-28T11:45:23.134Z,220
2018-07-28T11:46:38.130Z,210
2018-07-28T11:47:52.754Z,200
2018-07-28T11:49:07.564Z,180
2018-07-28T11:50:22.007Z,175
2018-07-28T11:51:36.918Z,170
2018-07-28T11:52:51.601Z,160
2018-07-28T11:54:05.594Z,160
2018-07-28T11:55:20.957Z,155
2018-07-28T11:56:35.739Z,155
2018-07-28T11:57:50.763Z,155
2018-07-28T11:59:06.541Z,170
2018-07-28T12:00:21.493Z,165
2018-07-28T12:01:36.818Z,170
2018-07-28T12:02:51.606Z,175
2018-07-28T12:04:06.190Z,160
2018-07-28T12:05:20.170Z,160
2018-07-28T12:06:34.407Z,160
2018-07-28T12:07:49.717Z,165
2018-07-28T12:09:04.470Z,170
2018-07-28T12:10:19.194Z,195
2018-07-28T12:11:34.171Z,205
2018-07-28T12:12:48.687Z,190
2018-07-28T12:14:04.276Z,170
2018-07-28T12:15:19.045Z,155
2018-07-28T12:16:33.605Z,155
2018-07-28T12:17:48.358Z,155
2018-07-28T12:19:03.147Z,155
2018-07-28T12:20:17.374Z,155
2018-07-28T12:21:31.600Z,160
2018-07-28T12:22:46.283Z,165
2018-07-28T12:24:00.953Z,170
2018-07-28T12:25:15.636Z,165
2018-07-28T12:26:30.658Z,160
2018-07-28T12:27:44.607Z,160
2018-07-28T12:28:59.142Z,155
2018-07-28T12:30:13.581Z,160
2018-07-28T12:31:28.038Z,160
2018-07-28T12:32:44.465Z,155
2018-07-28T12:33:59.046Z,140
2018-07-28T12:35:13.712Z,150
2018-07-28T12:36:28.677Z,135
2018-07-28T12:37:43.367Z,135
2018-07-28T12:38:58.282Z,130
2018-07-28T12:40:13.190Z,135
2018-07-28T12:41:28.145Z,145
2018-07-28T12:42:42.362Z,160
2018-07-28T12:43:56.812Z,165
2018-07-28T12:45:17.687Z,175
2018-07-28T12:46:32.664Z,180
2018-07-28T12:47:47.369Z,185
2018-07-28T12:49:01.957Z,185
2018-07-28T12:50:16.625Z,210
2018-07-28T12:51:31.153Z,220
2018-07-28T12:52:45.579Z,235
2018-07-28T12:53:59.754Z,245
2018-07-28T12:55:14.231Z,245
2018-07-28T12:56:29.388Z,240
2018-07-28T12:57:44.125Z,235
2018-07-28T12:58:58.087Z,230
2018-07-28T13:00:12.892Z,225
2018-07-28T13:01:27.527Z,235
2018-07-28T13:02:42.323Z,245
2018-07-28T13:03:56.759Z,235
2018-07-28T13:05:11.578Z,240
2018-07-28T13:06:26.263Z,245
2018-07-28T13:07:41.097Z,245
2018-07-28T13:08:55.615Z,240
2018-07-28T13:10:11.225Z,245
2018-07-28T13:11:26.322Z,240
2018-07-28T13:12:41.686Z,210
2018-07-28T13:13:56.661Z,200
2018-07-28T13:15:11.794Z,220
2018-07-28T13:16:26.089Z,225
2018-07-28T13:17:40.788Z,230
2018-07-28T13:18:55.416Z,245
2018-07-28T13:20:10.084Z,245
2018-07-28T13:21:25.295Z,255
2018-07-28T13:22:40.129Z,245
2018-07-28T13:23:55.040Z,235
2018-07-28T13:25:10.029Z,245
2018-07-28T13:26:25.035Z,235
2018-07-28T13:27:40.032Z,220
2018-07-28T13:28:54.997Z,205
2018-07-28T13:30:08.968Z,210
2018-07-28T13:31:23.716Z,235
2018-07-28T13:32:37.874Z,250
2018-07-28T13:33:52.090Z,245
2018-07-28T13:35:06.368Z,235
2018-07-28T13:36:20.400Z,225
2018-07-28T13:37:35.551Z,195
2018-07-28T13:38:50.359Z,160
2018-07-28T13:40:04.329Z,160
2018-07-28T13:41:19.518Z,140
2018-07-28T13:42:33.492Z,120
2018-07-28T13:43:47.965Z,115
2018-07-28T13:45:02.471Z,95
2018-07-28T13:46:17.009Z,65
2018-07-28T13:47:31.518Z,50
2018-07-28T13:48:45.954Z,50
2018-07-28T13:50:00.453Z,40
2018-07-28T13:51:15.477Z,35
2018-07-28T13:52:29.941Z,30
2018-07-28T13:53:44.751Z,30
2018-07-28T13:54:59.180Z,25
2018-07-28T13:56:13.679Z,25
2018-07-28T13:57:28.133Z,30
2018-07-28T13:58:42.613Z,40
2018-07-28T13:59:57.599Z,55
2018-07-28T14:01:11.825Z,70
2018-07-28T14:02:26.596Z,80
2018-07-28T14:03:41.273Z,85
2018-07-28T14:04:55.983Z,80
2018-07-28T14:06:10.757Z,85
2018-07-28T14:07:26.199Z,80
2018-07-28T14:08:40.438Z,90
2018-07-28T14:09:54.607Z,95
2018-07-28T14:11:09.036Z,95
2018-07-28T14:12:24.323Z,95
2018-07-28T14:13:39.019Z,90
2018-07-28T14:14:53.358Z,85
2018-07-28T14:16:08.140Z,85
2018-07-28T14:17:22.985Z,85
2018-07-28T14:18:38.970Z,90
2018-07-28T14:19:52.967Z,110
2018-07-28T14:21:07.428Z,105
2018-07-28T14:22:21.938Z,120
2018-07-28T14:23:37.024Z,145
2018-07-28T14:24:51.572Z,160
2018-07-28T14:26:06.319Z,170
2018-07-28T14:27:20.809Z,165
2018-07-28T14:28:35.873Z,145
2018-07-28T14:29:50.590Z,115
2018-07-28T14:31:05.101Z,95
2018-07-28T14:32:19.772Z,90
2018-07-28T14:33:34.446Z,90
2018-07-28T14:34:48.393Z,90
2018-07-28T14:36:03.117Z,95
2018-07-28T14:37:18.391Z,120
2018-07-28T14:38:32.605Z,140
2018-07-28T14:39:46.809Z,165
2018-07-28T14:41:01.284Z,185
2018-07-28T14:42:15.251Z,210
2018-07-28T14:43:29.589Z,215
2018-07-28T14:44:44.545Z,215
2018-07-28T14:45:59.077Z,215
2018-07-28T14:47:13.508Z,210
2018-07-28T14:48:27.775Z,220
2018-07-28T14:49:42.247Z,220
2018-07-28T14:50:56.755Z,215
2018-07-28T14:52:11.306Z,215
2018-07-28T14:53:25.594Z,225
2018-07-28T14:54:40.422Z,225
2018-07-28T14:55:55.424Z,225
2018-07-28T14:57:09.935Z,220
2018-07-28T14:58:24.047Z,215
2018-07-28T14:59:38.256Z,205
2018-07-28T15:00:53.127Z,195
2018-07-28T15:02:08.061Z,185
2018-07-28T15:03:22.884Z,175
2018-07-28T15:04:37.653Z,170
2018-07-28T15:05:51.896Z,160
2018-07-28T15:07:06.776Z,155
2018-07-28T15:08:21.938Z,145
2018-07-28T15:09:37.121Z,145
2018-07-28T15:10:51.855Z,140
2018-07-28T15:12:06.301Z,135
2018-07-28T15:13:20.941Z,140
2018-07-28T15:14:35.782Z,135
2018-07-28T15:15:49.300Z,130
2018-07-28T15:17:04.196Z,130
2018-07-28T15:18:18.500Z,135
2018-07-28T15:19:33.394Z,150
2018-07-28T15:20:48.112Z,145
2018-07-28T15:22:02.345Z,145
2018-07-28T15:23:16.794Z,135
2018-07-28T15:24:31.362Z,135
2018-07-28T15:25:46.328Z,130
2018-07-28T15:27:01.161Z,130
2018-07-28T15:28:15.368Z,135
2018-07-28T15:29:29.976Z,155
2018-07-28T15:30:44.488Z,150
2018-07-28T15:31:59.175Z,155
2018-07-28T15:33:14.082Z,155
2018-07-28T15:34:28.923Z,155
2018-07-28T15:35:43.610Z,150
2018-07-28T15:36:57.940Z,145
2018-07-28T15:38:12.112Z,150
2018-07-28T15:39:26.913Z,155
2018-07-28T15:40:40.850Z,145
2018-07-28T15:41:54.795Z,155
2018-07-28T15:43:09.277Z,160
2018-07-28T15:44:23.703Z,175
2018-07-28T15:45:38.308Z,180
2018-07-28T15:46:53.223Z,185
2018-07-28T15:48:08.168Z,185
2018-07-28T15:49:22.767Z,185
2018-07-28T15:50:36.973Z,185
2018-07-28T15:51:51.499Z,180
2018-07-28T15:53:05.998Z,175
2018-07-28T15:54:20.454Z,170
2018-07-28T15:55:34.669Z,165
2018-07-28T15:56:49.378Z,160
2018-07-28T15:58:04.366Z,150
2018-07-28T15:59:18.322Z,150
2018-07-28T16:00:32.991Z,140
2018-07-28T16:01:47.720Z,140
2018-07-28T16:03:02.509Z,140
2018-07-28T16:04:18.263Z,135
2018-07-28T16:05:32.714Z,130
2018-07-28T16:06:57.872Z,130
2018-07-28T16:08:12.640Z,130
2018-07-28T16:09:27.166Z,125
2018-07-28T16:10:42.024Z,125
2018-07-28T16:11:56.781Z,125
2018-07-28T16:13:11.303Z,130
2018-07-28T16:14:25.775Z,130
2018-07-28T16:15:39.958Z,125
2018-07-28T16:16:54.960Z,125
2018-07-28T16:18:08.940Z,125
2018-07-28T16:19:23.388Z,120
2018-07-28T16:20:38.102Z,120
2018-07-28T16:21:52.080Z,115
2018-07-28T16:23:06.827Z,125
2018-07-28T16:24:21.044Z,120
2018-07-28T16:25:36.345Z,115
2018-07-28T16:26:51.543Z,120
2018-07-28T16:28:06.541Z,120
2018-07-28T16:29:21.336Z,115
2018-07-28T16:30:35.377Z,110
2018-07-28T16:31:50.339Z,110
2018-07-28T16:33:04.525Z,110
2018-07-28T16:34:18.785Z,115
2018-07-28T16:35:32.813Z,120
2018-07-28T16:36:47.751Z,125
2018-07-28T16:38:02.516Z,120
2018-07-28T16:39:17.503Z,125
2018-07-28T16:40:32.768Z,125
2018-07-28T16:41:48.015Z,115
2018-07-28T16:43:02.738Z,115
2018-07-28T16:44:17.133Z,110
2018-07-28T16:45:31.680Z,100
2018-07-28T16:46:46.831Z,90
2018-07-28T16:48:01.299Z,90
2018-07-28T16:49:15.636Z,90
2018-07-28T16:50:30.275Z,90
2018-07-28T16:51:44.841Z,100
2018-07-28T16:52:59.653Z,110
2018-07-28T16:54:14.603Z,120
2018-07-28T16:55:29.150Z,125
2018-07-28T16:56:44.416Z,120
2018-07-28T16:57:58.427Z,110
2018-07-28T16:59:13.373Z,110
2018-07-28T17:00:28.374Z,105
2018-07-28T17:01:42.704Z,100
2018-07-28T17:02:57.780Z,95
2018-07-28T17:04:12.206Z,95
2018-07-28T17:05:27.173Z,100
2018-07-28T17:06:42.192Z,95
2018-07-28T17:07:56.938Z,100
2018-07-28T17:09:11.675Z,110
2018-07-28T17:10:26.628Z,115
2018-07-28T17:12:32.854Z,120
2018-07-28T17:13:47.727Z,120
2018-07-28T17:15:02.244Z,120
2018-07-28T17:16:17.242Z,120
2018-07-28T17:17:32.299Z,115
2018-07-28T17:18:46.744Z,110
2018-07-28T17:20:00.960Z,110
2018-07-28T17:21:15.641Z,115
2018-07-28T17:22:30.526Z,110
2018-07-28T17:23:45.923Z,105
2018-07-28T17:25:00.618Z,100
2018-07-28T17:26:15.557Z,90
2018-07-28T17:27:30.466Z,80
2018-07-28T17:28:45.191Z,75
2018-07-28T17:30:00.440Z,70
2018-07-28T17:31:15.179Z,65
2018-07-28T17:32:30.547Z,65
2018-07-28T17:33:44.727Z,60
2018-07-28T17:34:58.675Z,55
2018-07-28T17:36:13.143Z,55